Time;durP1;ratioP1;P1;durP2;ratioP2;P2;SDS_P1;SDS_P2;PMS_P1;PMS_P2;Temp;Humidity;BMP_temperature;BMP_pressure;BME280_temperature;BME280_humidity;BME280_pressure;Samples;Min_cycle;Max_cycle;Signal;HPM_P1;HPM_P2
2022/01/24 00:00:06;;;;;;;2.33;1.83;;;;;;;0.28;61.91;99801.91;5075515;28;20435;-93
2022/01/24 00:02:32;;;;;;;1.77;1.03;;;;;;;0.24;62.35;99802.75;5075480;28;20177;-94
2022/01/24 00:04:57;;;;;;;1.53;1.43;;;;;;;0.22;62.76;99809.63;5074910;28;20926;-95
2022/01/24 00:07:24;;;;;;;1.43;0.90;;;;;;;0.22;62.40;99809.63;5075357;28;20199;-95
2022/01/24 00:09:53;;;;;;;5.00;1.17;;;;;;;0.09;62.59;99814.78;5075530;28;20211;-94
2022/01/24 00:12:26;;;;;;;0.70;0.67;;;;;;;-0.06;63.20;99806.19;5075337;28;20420;-95
2022/01/24 00:17:30;;;;;;;1.87;0.83;;;;;;;-0.23;64.68;99819.91;5076100;28;20912;-94
2022/01/24 00:28:10;;;;;;;1.80;0.87;;;;;;;-0.16;64.31;99832.78;5076745;28;20445;-95
2022/01/24 00:30:35;;;;;;;1.50;1.33;;;;;;;-0.17;64.16;99832.78;5075055;28;20928;-95
2022/01/24 00:33:01;;;;;;;0.60;0.60;;;;;;;-0.28;64.67;99832.78;5074938;28;20173;-95
2022/01/24 00:35:26;;;;;;;1.77;1.27;;;;;;;-0.36;64.74;99837.06;5075001;28;20646;-96
2022/01/24 00:37:52;;;;;;;1.30;0.73;;;;;;;-0.30;64.56;99837.06;5075128;28;20192;-95
2022/01/24 00:40:18;;;;;;;1.00;0.80;;;;;;;-0.24;64.21;99839.69;5074677;28;20189;-95
2022/01/24 00:42:53;;;;;;;1.90;1.23;;;;;;;-0.23;64.43;99835.34;5075118;28;20165;-95
2022/01/24 00:45:48;;;;;;;0.70;0.60;;;;;;;-0.32;64.54;99838.78;5075259;28;20189;-95
2022/01/24 00:56:03;;;;;;;2.63;1.17;;;;;;;-0.27;64.23;99860.25;5076171;28;20482;-94
2022/01/24 00:58:29;;;;;;;2.87;0.90;;;;;;;-0.33;64.59;99849.06;5074439;28;20916;-94
2022/01/24 01:00:55;;;;;;;4.10;1.17;;;;;;;-0.41;64.63;99856.78;5074435;28;20427;-94
2022/01/24 01:03:20;;;;;;;0.53;0.53;;;;;;;-0.40;64.76;99847.34;5074379;28;20691;-94
2022/01/24 01:06:04;;;;;;;1.10;0.80;;;;;;;-0.45;64.79;99849.06;5074316;28;20227;-94
2022/01/24 01:19:28;;;;;;;1.83;0.87;;;;;;;-0.81;66.75;99867.78;5075627;28;20461;-94
2022/01/24 01:21:53;;;;;;;1.40;1.00;;;;;;;-0.75;66.98;99868.69;5073845;28;20840;-94
2022/01/24 01:24:20;;;;;;;2.67;1.40;;;;;;;-0.74;66.68;99872.13;5073932;28;20414;-93
2022/01/24 01:26:52;;;;;;;1.90;0.53;;;;;;;-0.85;67.08;99874.66;5073583;28;20201;-94
2022/01/24 01:29:32;;;;;;;3.17;1.40;;;;;;;-0.98;68.09;99872.88;5073985;28;20780;-94
2022/01/24 01:55:56;;;;;;;0.73;0.63;;;;;;;-1.36;71.13;99911.19;5074177;28;20756;-94
2022/01/24 01:58:23;;;;;;;3.20;1.20;;;;;;;-1.26;70.19;99918.13;5073339;28;20427;-95
2022/01/24 02:00:53;;;;;;;3.60;0.93;;;;;;;-1.37;70.37;99919.78;5073563;28;20626;-95
2022/01/24 02:03:19;;;;;;;2.47;2.20;;;;;;;-1.19;70.18;99919.03;5073187;28;20471;-94
2022/01/24 02:05:45;;;;;;;1.17;1.07;;;;;;;-1.13;69.59;99924.22;5073230;28;20467;-94
2022/01/24 02:08:10;;;;;;;0.97;0.93;;;;;;;-1.14;69.73;99921.63;5073195;28;20983;-95
2022/01/24 02:10:38;;;;;;;0.70;0.70;;;;;;;-1.44;70.89;99925.69;5073156;28;20207;-95
2022/01/24 02:13:04;;;;;;;1.90;1.23;;;;;;;-1.68;71.60;99916.94;5073133;28;20169;-94
2022/01/24 02:15:45;;;;;;;0.63;0.57;;;;;;;-1.59;71.58;99922.16;5073145;28;20403;-94
2022/01/24 02:25:51;;;;;;;1.23;0.73;;;;;;;-1.97;73.62;99935.53;5073802;28;20459;-95
2022/01/24 02:28:18;;;;;;;0.80;0.80;;;;;;;-1.98;74.16;99936.34;5073799;28;20778;-95
2022/01/24 02:30:57;;;;;;;3.93;1.53;;;;;;;-1.96;73.67;99942.38;5073163;28;20423;-95
2022/01/24 02:33:23;;;;;;;0.50;0.50;;;;;;;-1.86;73.01;99941.59;5072932;28;20404;-94
2022/01/24 02:35:49;;;;;;;1.43;1.33;;;;;;;-1.68;72.92;99937.50;5072850;28;20943;-95
2022/01/24 02:38:40;;;;;;;1.60;1.50;;;;;;;-1.68;72.42;99945.22;5072867;28;20594;-94
2022/01/24 02:49:13;;;;;;;0.73;0.73;;;;;;;-1.95;73.75;99976.63;5074334;28;20737;-94
2022/01/24 02:51:48;;;;;;;1.90;1.03;;;;;;;-2.04;74.24;99989.34;5072757;28;20905;-94
2022/01/24 02:54:31;;;;;;;2.07;1.77;;;;;;;-2.07;75.70;99985.03;5072752;28;20429;-95
2022/01/24 02:56:57;;;;;;;3.83;2.67;;;;;;;-2.21;75.47;99984.03;5072913;28;20414;-95
2022/01/24 02:59:22;;;;;;;4.10;1.37;;;;;;;-2.21;75.46;99986.63;5072590;28;20411;-95
2022/01/24 03:01:48;;;;;;;4.00;2.27;;;;;;;-2.30;76.11;99995.88;5072557;28;20177;-95
2022/01/24 03:04:14;;;;;;;1.67;1.27;;;;;;;-2.19;75.57;99994.31;5072670;28;20206;-95
2022/01/24 03:06:39;;;;;;;4.47;1.97;;;;;;;-2.00;74.78;99992.00;5072428;28;20688;-94
2022/01/24 03:09:07;;;;;;;1.10;0.90;;;;;;;-2.00;74.24;99992.00;5072767;28;20653;-95
2022/01/24 03:14:18;;;;;;;1.17;1.07;;;;;;;-1.93;73.42;99988.63;5074034;28;20394;-94
2022/01/24 03:16:44;;;;;;;7.33;3.57;;;;;;;-1.85;73.17;99991.28;5072403;28;20408;-95
2022/01/24 03:19:10;;;;;;;8.87;2.40;;;;;;;-1.77;72.35;99988.78;5072698;28;20421;-94
2022/01/24 03:21:35;;;;;;;1.20;1.10;;;;;;;-1.72;71.88;99998.28;5072357;28;20172;-95
2022/01/24 03:24:01;;;;;;;0.40;0.40;;;;;;;-1.77;71.63;99999.94;5072382;28;20249;-94
2022/01/24 03:26:26;;;;;;;1.93;1.10;;;;;;;-1.75;71.34;100002.50;5072310;28;20237;-94
2022/01/24 03:28:52;;;;;;;7.43;2.53;;;;;;;-1.83;71.14;99992.16;5073106;28;20188;-94
2022/01/24 03:31:18;;;;;;;1.73;1.00;;;;;;;-1.91;70.86;99997.22;5072330;28;20184;-95
2022/01/24 03:33:43;;;;;;;1.20;1.10;;;;;;;-2.06;70.38;100002.19;5072332;28;20185;-94
2022/01/24 03:36:08;;;;;;;2.37;2.03;;;;;;;-2.17;71.15;99998.63;5072190;28;20173;-94
2022/01/24 03:38:34;;;;;;;1.87;1.10;;;;;;;-2.28;72.09;100013.03;5072777;28;20703;-94
2022/01/24 03:41:00;;;;;;;1.53;1.43;;;;;;;-2.38;72.45;100011.19;5076034;28;20192;-94
2022/01/24 03:43:25;;;;;;;0.93;0.87;;;;;;;-2.14;72.16;100016.66;5075852;28;20204;-94
2022/01/24 03:51:05;;;;;;;1.20;1.10;;;;;;;-1.97;69.85;100014.28;5077036;28;20439;-94
2022/01/24 03:53:30;;;;;;;1.80;0.87;;;;;;;-1.91;69.52;100016.91;5075693;28;20415;-94
2022/01/24 03:55:56;;;;;;;2.90;1.63;;;;;;;-1.97;69.70;100012.59;5075661;28;20173;-95
2022/01/24 03:58:21;;;;;;;1.33;1.07;;;;;;;-1.97;70.03;100017.72;5075556;28;20634;-94
2022/01/24 04:00:47;;;;;;;1.63;1.43;;;;;;;-2.06;70.21;100015.03;5075528;28;20540;-94
2022/01/24 04:03:14;;;;;;;0.87;0.80;;;;;;;-2.16;70.66;100013.22;5075708;28;20185;-95
2022/01/24 04:05:41;;;;;;;1.87;1.33;;;;;;;-2.28;71.68;100023.31;5075495;28;20662;-94
2022/01/24 04:08:07;;;;;;;2.00;1.23;;;;;;;-2.18;71.66;100025.19;5075314;28;20422;-94
2022/01/24 04:10:41;;;;;;;1.50;1.27;;;;;;;-2.17;71.62;100028.56;5075296;28;20408;-94
2022/01/24 04:13:24;;;;;;;1.13;1.00;;;;;;;-2.12;71.48;100029.50;5075296;28;20408;-94
2022/01/24 04:18:57;;;;;;;11.57;1.90;;;;;;;-2.15;72.25;100043.16;5076664;28;20433;-95
2022/01/24 04:21:31;;;;;;;1.30;1.20;;;;;;;-2.02;72.72;100047.59;5075183;28;20428;-94
2022/01/24 04:26:28;;;;;;;1.00;0.77;;;;;;;-1.89;72.42;100052.03;5076237;28;20446;-94
2022/01/24 04:28:55;;;;;;;2.00;1.60;;;;;;;-2.02;73.44;100050.16;5074916;28;20426;-94
2022/01/24 04:31:21;;;;;;;0.80;0.80;;;;;;;-1.83;73.19;100058.97;5074825;28;20534;-94
2022/01/24 04:33:46;;;;;;;3.50;1.63;;;;;;;-1.71;72.39;100055.69;5074858;28;20888;-94
2022/01/24 04:36:13;;;;;;;1.83;1.70;;;;;;;-1.58;71.81;100062.69;5075046;28;20423;-94
2022/01/24 04:38:38;;;;;;;4.27;1.30;;;;;;;-1.50;71.23;100058.47;5074872;28;20193;-94
2022/01/24 04:41:12;;;;;;;2.97;1.53;;;;;;;-1.38;70.82;100061.16;5075253;28;20438;-94
2022/01/24 04:46:43;;;;;;;2.33;1.80;;;;;;;-1.43;70.09;100078.25;5075778;28;20446;-95
2022/01/24 04:56:38;;;;;;;1.73;1.63;;;;;;;-1.21;69.33;100092.19;5075314;28;20531;-94
2022/01/24 04:59:07;;;;;;;3.23;1.77;;;;;;;-1.19;69.13;100095.66;5074424;28;20220;-94
2022/01/24 05:01:33;;;;;;;2.40;1.73;;;;;;;-1.25;68.35;100101.59;5074683;28;20984;-94
2022/01/24 05:03:59;;;;;;;1.37;1.07;;;;;;;-1.38;68.84;100103.19;5074369;28;20470;-94
2022/01/24 05:06:24;;;;;;;3.77;1.57;;;;;;;-1.42;69.11;100092.84;5074726;28;20193;-94
2022/01/24 05:08:50;;;;;;;1.77;1.47;;;;;;;-1.45;68.97;100108.25;5074476;28;20199;-95
2022/01/24 05:11:24;;;;;;;0.80;0.70;;;;;;;-1.45;69.05;100103.09;5074233;28;20173;-95
2022/01/24 05:24:35;;;;;;;1.60;1.30;;;;;;;-1.68;69.12;100119.97;5074755;28;20426;-94
2022/01/24 05:27:01;;;;;;;3.27;1.23;;;;;;;-1.67;68.66;100125.13;5073916;28;20964;-95
2022/01/24 05:29:27;;;;;;;3.63;1.57;;;;;;;-1.65;68.66;100126.00;5074004;28;20408;-95
2022/01/24 05:31:55;;;;;;;2.50;1.43;;;;;;;-1.70;68.42;100119.09;5073878;28;20173;-95
2022/01/24 05:34:20;;;;;;;3.00;1.47;;;;;;;-1.57;68.06;100124.38;5074004;28;20408;-94
2022/01/24 05:36:46;;;;;;;1.73;1.27;;;;;;;-1.43;67.26;100132.25;5073758;28;20407;-95
2022/01/24 05:39:11;;;;;;;3.70;1.70;;;;;;;-1.46;67.05;100130.50;5073708;28;20173;-94
2022/01/24 05:41:38;;;;;;;1.70;1.07;;;;;;;-1.79;67.34;100124.97;5073622;28;20193;-94
2022/01/24 05:44:07;;;;;;;1.13;1.03;;;;;;;-1.91;67.81;100123.09;5073553;28;20626;-95
2022/01/24 05:46:34;;;;;;;1.60;1.50;;;;;;;-1.81;67.75;100130.94;5073526;28;20447;-95
2022/01/24 05:49:01;;;;;;;2.10;1.63;;;;;;;-1.59;67.00;100127.78;5073686;28;20828;-94
2022/01/24 05:51:28;;;;;;;3.07;1.47;;;;;;;-1.50;66.82;100138.19;5073504;28;20430;-95
2022/01/24 05:53:54;;;;;;;1.00;0.80;;;;;;;-1.64;66.66;100134.56;5073436;28;20514;-95
2022/01/24 05:56:20;;;;;;;3.93;1.77;;;;;;;-1.77;67.39;100140.41;5073886;28;20430;-94
2022/01/24 05:58:46;;;;;;;6.13;1.23;;;;;;;-1.56;66.45;100150.94;5073336;28;20424;-94
2022/01/24 06:01:11;;;;;;;1.27;1.17;;;;;;;-1.56;66.27;100158.66;5072972;28;20220;-95
2022/01/24 06:03:37;;;;;;;2.27;1.10;;;;;;;-1.69;66.03;100157.66;5073298;28;20249;-95
2022/01/24 06:06:03;;;;;;;1.40;1.30;;;;;;;-1.64;65.55;100167.97;5073476;28;20236;-95
2022/01/24 06:08:28;;;;;;;1.03;0.60;;;;;;;-1.65;65.85;100164.53;5074288;28;20182;-95
2022/01/24 06:10:58;;;;;;;1.47;0.90;;;;;;;-1.71;66.42;100168.75;5073223;28;20182;-94
2022/01/24 06:13:27;;;;;;;1.33;1.00;;;;;;;-1.67;66.55;100175.66;5073148;28;20188;-94
2022/01/24 06:15:53;;;;;;;2.10;1.43;;;;;;;-1.63;66.05;100177.44;5073069;28;20419;-95
2022/01/24 06:18:20;;;;;;;1.17;0.50;;;;;;;-1.42;65.62;100177.69;5073549;28;20416;-95
2022/01/24 06:20:45;;;;;;;1.23;0.93;;;;;;;-1.40;64.82;100186.28;5073491;28;20423;-96
2022/01/24 06:23:15;;;;;;;2.07;1.43;;;;;;;-1.36;64.68;100183.75;5073164;28;20588;-95
2022/01/24 06:25:41;;;;;;;4.03;2.20;;;;;;;-1.32;64.21;100187.25;5073141;28;20208;-94
2022/01/24 06:28:06;;;;;;;2.83;1.20;;;;;;;-1.12;63.31;100196.03;5073055;28;20411;-94
2022/01/24 06:30:32;;;;;;;1.20;1.10;;;;;;;-0.85;63.28;100200.63;5072868;28;20185;-94
2022/01/24 06:32:57;;;;;;;1.90;1.37;;;;;;;-0.49;62.14;100207.81;5072908;28;20641;-93
2022/01/24 06:35:23;;;;;;;4.67;1.77;;;;;;;0.13;61.60;100201.41;5072405;28;20681;-93
2022/01/24 06:37:49;;;;;;;2.50;1.20;;;;;;;0.45;59.86;100192.13;5072379;28;20181;-93
2022/01/24 06:40:15;;;;;;;4.13;2.20;;;;;;;0.69;58.59;100193.09;5071768;28;20293;-93
2022/01/24 06:42:40;;;;;;;3.50;2.03;;;;;;;0.58;56.36;100195.63;5072052;28;20423;-93
2022/01/24 06:45:07;;;;;;;1.63;1.13;;;;;;;0.48;56.56;100188.72;5071710;28;20619;-92
2022/01/24 06:47:36;;;;;;;4.97;1.73;;;;;;;0.33;56.49;100204.09;5071632;28;20172;-93
2022/01/24 06:50:02;;;;;;;1.77;1.63;;;;;;;0.20;56.09;100202.31;5072354;28;20426;-92
2022/01/24 06:52:27;;;;;;;2.20;1.27;;;;;;;0.34;56.39;100213.59;5072539;28;20416;-93
2022/01/24 06:54:53;;;;;;;1.93;1.53;;;;;;;0.35;55.97;100216.16;5072339;28;20180;-92
2022/01/24 06:57:19;;;;;;;3.27;1.20;;;;;;;0.66;55.26;100205.97;5072354;28;20177;-91
2022/01/24 06:59:46;;;;;;;2.17;1.27;;;;;;;0.65;55.63;100212.00;5072075;28;20276;-91
2022/01/24 07:02:13;;;;;;;1.53;0.90;;;;;;;0.63;55.72;100216.31;5071963;28;20188;-91
2022/01/24 07:04:39;;;;;;;3.03;1.10;;;;;;;0.74;55.33;100219.78;5072859;28;20416;-90
2022/01/24 07:07:06;;;;;;;4.93;2.90;;;;;;;0.93;54.77;100209.53;5072668;28;20467;-90
2022/01/24 07:09:32;;;;;;;5.17;1.93;;;;;;;1.08;54.44;100213.88;5073049;28;20481;-89
2022/01/24 07:11:58;;;;;;;4.13;1.73;;;;;;;1.01;53.57;100217.31;5072728;28;20413;-90
2022/01/24 07:14:23;;;;;;;4.03;1.60;;;;;;;1.36;54.55;100209.63;5074641;28;20208;-89
2022/01/24 07:19:21;;;;;;;5.27;2.23;;;;;;;1.84;52.15;100215.69;5076683;28;20385;-89
2022/01/24 07:21:46;;;;;;;2.93;2.63;;;;;;;1.69;50.08;100205.34;5076494;28;20412;-89
2022/01/24 07:24:12;;;;;;;5.60;2.00;;;;;;;1.16;51.61;100212.16;5076737;28;20912;-89
2022/01/24 07:26:37;;;;;;;5.10;2.13;;;;;;;1.05;52.68;100216.44;5076353;28;20216;-89
2022/01/24 07:29:03;;;;;;;2.27;2.00;;;;;;;1.14;52.43;100211.31;5075685;28;20193;-89
2022/01/24 07:31:28;;;;;;;3.20;1.13;;;;;;;1.11;52.06;100219.91;5076648;28;20217;-89
2022/01/24 07:33:55;;;;;;;4.67;2.10;;;;;;;1.13;52.64;100227.66;5075385;28;20181;-89
2022/01/24 07:36:22;;;;;;;4.37;2.20;;;;;;;0.93;51.41;100227.59;5075293;28;20323;-89
2022/01/24 07:38:47;;;;;;;2.37;1.30;;;;;;;1.11;52.18;100222.50;5075211;28;20427;-89
2022/01/24 07:41:15;;;;;;;5.70;1.67;;;;;;;1.47;52.31;100226.84;5075536;28;20442;-88
2022/01/24 07:43:40;;;;;;;2.73;2.30;;;;;;;1.53;51.51;100232.03;5075174;28;20243;-88
2022/01/24 07:46:06;;;;;;;4.73;2.80;;;;;;;1.65;51.05;100223.44;5075345;28;20460;-88
2022/01/24 07:48:31;;;;;;;5.87;3.67;;;;;;;1.74;50.61;100220.84;5075644;28;20613;-88
2022/01/24 07:50:56;;;;;;;11.93;3.40;;;;;;;1.62;51.10;100229.47;5075009;28;20181;-88
2022/01/24 07:53:23;;;;;;;3.50;2.07;;;;;;;1.34;50.51;100230.28;5075287;28;20186;-88
2022/01/24 07:55:49;;;;;;;3.20;1.40;;;;;;;1.31;51.87;100235.44;5075922;28;20204;-88
2022/01/24 07:58:14;;;;;;;3.77;2.53;;;;;;;1.05;50.40;100240.53;5075695;28;20452;-88
2022/01/24 08:00:40;;;;;;;7.33;3.60;;;;;;;1.22;50.89;100243.19;5074895;28;20696;-89
2022/01/24 08:03:06;;;;;;;3.07;2.23;;;;;;;1.09;50.99;100241.41;5075807;28;20200;-88
2022/01/24 08:05:32;;;;;;;3.97;2.57;;;;;;;1.16;50.43;100248.31;5074711;28;20733;-88
2022/01/24 08:07:58;;;;;;;1.53;0.97;;;;;;;1.41;51.21;100244.94;5075654;28;20446;-87
2022/01/24 08:10:23;;;;;;;2.63;1.30;;;;;;;1.55;49.31;100239.78;5074671;28;20444;-88
2022/01/24 08:12:49;;;;;;;2.77;1.53;;;;;;;1.70;49.54;100242.41;5075218;28;20194;-88
2022/01/24 08:15:15;;;;;;;3.53;1.77;;;;;;;1.39;48.96;100240.66;5075609;28;20607;-89
2022/01/24 08:17:42;;;;;;;2.83;2.50;;;;;;;0.99;49.89;100243.13;5075822;28;20178;-89
2022/01/24 08:20:09;;;;;;;2.43;1.73;;;;;;;0.97;50.77;100249.97;5075767;28;20904;-90
2022/01/24 08:22:34;;;;;;;1.40;1.10;;;;;;;0.96;49.89;100249.97;5074682;28;20859;-91
2022/01/24 08:25:04;;;;;;;1.07;0.93;;;;;;;0.81;49.70;100250.78;5074971;28;20416;-91
2022/01/24 08:27:30;;;;;;;3.23;2.03;;;;;;;0.80;51.65;100246.47;5075275;28;20204;-90
2022/01/24 08:29:56;;;;;;;3.57;1.60;;;;;;;0.48;51.09;100254.06;5075640;28;20431;-90
2022/01/24 08:32:21;;;;;;;3.40;1.57;;;;;;;0.85;51.51;100254.22;5075252;28;20424;-89
2022/01/24 08:34:47;;;;;;;2.77;1.60;;;;;;;0.87;51.55;100255.09;5074549;28;20234;-90
2022/01/24 08:37:12;;;;;;;2.87;1.53;;;;;;;1.10;51.92;100262.06;5075171;28;20177;-88
2022/01/24 08:39:39;;;;;;;2.20;1.57;;;;;;;1.29;51.25;100250.06;5075112;28;20223;-88
2022/01/24 08:47:25;;;;;;;1.37;0.77;;;;;;;1.42;49.64;100256.13;5075498;28;20475;-87
2022/01/24 08:49:51;;;;;;;2.87;1.83;;;;;;;1.26;49.68;100252.66;5075079;28;20499;-88
2022/01/24 08:52:17;;;;;;;1.53;1.17;;;;;;;1.38;48.60;100259.56;5074963;28;20435;-87
2022/01/24 08:54:42;;;;;;;2.77;1.90;;;;;;;1.36;49.25;100254.41;5074154;28;20182;-88
2022/01/24 08:57:08;;;;;;;3.80;2.73;;;;;;;1.77;48.44;100252.75;5074094;28;20182;-87
2022/01/24 08:59:34;;;;;;;4.30;0.97;;;;;;;1.57;48.01;100262.19;5075252;28;20194;-87
2022/01/24 09:02:01;;;;;;;1.93;1.47;;;;;;;1.60;48.02;100262.19;5073929;28;20405;-88
2022/01/24 09:04:26;;;;;;;3.40;1.17;;;;;;;1.52;47.87;100261.31;5074564;28;20627;-87
2022/01/24 09:06:52;;;;;;;4.63;1.40;;;;;;;1.77;47.52;100264.81;5073495;28;20460;-86
2022/01/24 09:09:19;;;;;;;0.97;0.60;;;;;;;1.53;46.67;100270.78;5074673;28;20185;-93
2022/01/24 09:11:45;;;;;;;3.63;1.70;;;;;;;1.63;46.92;100277.69;5073562;28;20187;-88
2022/01/24 09:14:11;;;;;;;11.10;2.10;;;;;;;1.70;47.29;100279.41;5073461;28;20428;-88
2022/01/24 09:16:37;;;;;;;4.63;2.53;;;;;;;1.71;47.22;100275.13;5073433;28;20174;-88
2022/01/24 09:19:04;;;;;;;2.87;2.00;;;;;;;1.55;46.40;100278.53;5073376;28;20278;-89
2022/01/24 09:21:30;;;;;;;0.90;0.73;;;;;;;1.26;47.19;100280.22;5073331;28;20435;-88
2022/01/24 09:23:56;;;;;;;1.03;0.73;;;;;;;1.34;47.97;100283.69;5074632;28;20506;-92
2022/01/24 09:26:22;;;;;;;4.00;2.43;;;;;;;1.59;48.57;100288.91;5074153;28;20514;-88
2022/01/24 09:28:47;;;;;;;6.03;2.07;;;;;;;1.63;48.10;100276.81;5074243;28;20327;-89
2022/01/24 09:31:14;;;;;;;5.93;2.03;;;;;;;1.56;47.68;100275.09;5074383;28;20513;-89
2022/01/24 09:33:39;;;;;;;4.20;1.57;;;;;;;1.31;48.35;100275.91;5073124;28;20268;-89
2022/01/24 09:36:05;;;;;;;3.63;0.97;;;;;;;1.46;48.94;100282.00;5073448;28;20512;-90
2022/01/24 09:38:32;;;;;;;3.93;1.90;;;;;;;1.67;48.35;100282.03;5072858;28;20636;-89
2022/01/24 09:41:00;;;;;;;3.50;1.67;;;;;;;1.80;48.16;100278.59;5073766;28;20191;-89
2022/01/24 09:43:26;;;;;;;4.17;1.97;;;;;;;1.89;48.17;100275.13;5073828;28;20924;-89
2022/01/24 09:45:52;;;;;;;1.90;1.67;;;;;;;2.11;48.10;100271.69;5073683;28;20451;-89
2022/01/24 09:48:18;;;;;;;4.50;1.60;;;;;;;2.29;48.94;100268.22;5073775;28;20178;-89
2022/01/24 09:50:45;;;;;;;2.70;1.77;;;;;;;2.52;47.80;100266.44;5073959;28;20250;-89
2022/01/24 09:53:13;;;;;;;3.40;2.17;;;;;;;2.66;47.31;100264.69;5073930;28;20418;-88
2022/01/24 09:55:38;;;;;;;4.90;2.17;;;;;;;2.66;47.80;100256.94;5073631;28;20439;-90
2022/01/24 09:58:04;;;;;;;13.33;3.50;;;;;;;2.37;46.78;100261.31;5073597;28;20205;-89
2022/01/24 10:00:29;;;;;;;5.57;2.60;;;;;;;2.37;47.18;100258.72;5072630;28;20234;-90
2022/01/24 10:02:56;;;;;;;4.60;2.67;;;;;;;2.06;46.90;100257.91;5072547;28;20198;-89
2022/01/24 10:05:33;;;;;;;2.07;1.40;;;;;;;1.91;47.43;100259.63;5073666;28;20176;-90
2022/01/24 10:08:00;;;;;;;5.67;2.00;;;;;;;1.82;48.01;100257.91;5073744;28;20776;-91
2022/01/24 10:10:45;;;;;;;5.73;2.97;;;;;;;2.19;47.13;100254.44;5073794;28;20915;-91
2022/01/24 10:16:33;;;;;;;3.27;1.37;;;;;;;2.19;47.79;100253.59;5073641;28;20802;-89
2022/01/24 10:19:08;;;;;;;7.07;1.97;;;;;;;2.35;47.01;100255.28;5072330;28;20413;-89
2022/01/24 10:21:57;;;;;;;3.07;2.07;;;;;;;2.30;45.88;100255.31;5073859;28;20401;-90
2022/01/24 10:24:42;;;;;;;3.13;1.43;;;;;;;1.91;45.79;100262.22;5073892;28;20414;-91
2022/01/24 10:27:23;;;;;;;3.97;1.70;;;;;;;1.73;46.24;100257.91;5073550;28;20532;-90
2022/01/24 10:30:08;;;;;;;4.50;2.27;;;;;;;1.74;46.18;100255.31;5073453;28;20401;-89
2022/01/24 10:32:46;;;;;;;5.83;2.23;;;;;;;1.64;47.28;100256.19;5073498;28;20491;-90
2022/01/24 10:35:22;;;;;;;2.70;2.03;;;;;;;1.71;47.49;100259.63;5073154;28;20404;-89
2022/01/24 10:37:50;;;;;;;8.97;4.40;;;;;;;1.72;47.15;100257.06;5073099;28;20410;-91
2022/01/24 10:40:47;;;;;;;8.07;2.70;;;;;;;1.46;45.93;100261.31;5073017;28;20452;-91
2022/01/24 10:43:23;;;;;;;4.73;1.77;;;;;;;1.41;45.82;100259.59;5073332;28;20420;-89
2022/01/24 10:45:50;;;;;;;2.43;1.70;;;;;;;1.64;46.51;100263.94;5073250;28;20471;-89
2022/01/24 10:48:25;;;;;;;7.20;3.20;;;;;;;1.78;46.45;100257.03;5076020;28;20485;-89
2022/01/24 10:51:15;;;;;;;5.93;1.47;;;;;;;2.14;45.44;100256.19;5079962;28;20444;-88
2022/01/24 10:53:45;;;;;;;5.37;2.37;;;;;;;2.05;44.46;100260.47;5079927;28;20425;-89
2022/01/24 10:56:30;;;;;;;2.10;1.53;;;;;;;2.00;45.49;100255.31;5078621;28;20425;-87
2022/01/24 10:59:17;;;;;;;4.13;2.13;;;;;;;2.04;45.42;100253.59;5080045;28;20401;-89
2022/01/24 11:01:45;;;;;;;5.17;2.17;;;;;;;2.15;45.30;100247.53;5080058;28;20463;-89
2022/01/24 11:04:13;;;;;;;2.07;1.20;;;;;;;1.88;45.23;100263.09;5079949;28;20435;-89
2022/01/24 11:06:42;;;;;;;6.30;3.97;;;;;;;1.90;45.51;100265.66;5079677;28;20529;-89
2022/01/24 11:09:22;;;;;;;0.70;0.70;;;;;;;1.92;45.19;100256.16;5078762;28;20771;-89
2022/01/24 11:12:00;;;;;;;2.77;1.63;;;;;;;2.18;45.64;100251.84;5079686;28;20461;-88
2022/01/24 11:14:27;;;;;;;1.53;1.33;;;;;;;2.33;44.41;100255.28;5079414;28;20402;-88
2022/01/24 11:16:54;;;;;;;2.63;2.07;;;;;;;2.59;44.21;100255.25;5079413;28;20493;-88
2022/01/24 11:19:33;;;;;;;5.03;1.77;;;;;;;2.78;44.82;100250.84;5079239;28;20435;-88
2022/01/24 11:22:01;;;;;;;2.77;1.40;;;;;;;2.89;46.19;100241.31;5079435;28;20685;-88
2022/01/24 11:24:51;;;;;;;6.33;2.10;;;;;;;2.85;44.91;100237.03;5079357;28;20181;-88
2022/01/24 11:27:17;;;;;;;3.03;1.60;;;;;;;2.56;44.23;100241.44;5079637;28;20189;-87
2022/01/24 11:29:43;;;;;;;4.83;2.23;;;;;;;2.43;45.29;100248.38;5079300;28;20429;-88
2022/01/24 11:32:24;;;;;;;7.30;2.63;;;;;;;2.34;45.17;100243.22;5079779;28;20176;-88
2022/01/24 11:34:52;;;;;;;3.50;1.87;;;;;;;2.13;45.65;100240.66;5079739;28;20410;-91
2022/01/24 11:37:36;;;;;;;3.10;1.87;;;;;;;2.27;44.13;100246.69;5079483;28;20506;-87
2022/01/24 11:40:06;;;;;;;6.00;2.17;;;;;;;2.32;45.91;100247.53;5079523;28;20253;-89
2022/01/24 11:42:35;;;;;;;7.00;2.00;;;;;;;2.34;44.84;100256.13;5079479;28;20172;-87
2022/01/24 11:45:09;;;;;;;2.80;1.87;;;;;;;2.38;44.20;100255.28;5079166;28;20483;-87
2022/01/24 11:47:35;;;;;;;4.80;2.37;;;;;;;2.36;45.11;100252.69;5079427;28;20454;-87
2022/01/24 11:50:26;;;;;;;6.37;1.77;;;;;;;2.15;43.08;100257.88;5079122;28;20245;-87
2022/01/24 11:52:54;;;;;;;3.60;1.27;;;;;;;2.06;42.73;100252.75;5079127;28;20184;-90
2022/01/24 11:55:36;;;;;;;5.43;1.53;;;;;;;2.16;43.73;100253.59;5078122;28;20218;-88
2022/01/24 11:58:06;;;;;;;6.63;1.83;;;;;;;2.16;44.15;100246.69;5079069;28;20433;-87
2022/01/24 12:00:40;;;;;;;4.57;2.40;;;;;;;2.24;42.22;100251.84;5076316;28;20473;-89
2022/01/24 12:03:20;;;;;;;1.67;1.20;;;;;;;1.99;43.35;100256.19;5074857;28;20410;-88
2022/01/24 12:05:48;;;;;;;2.17;1.77;;;;;;;2.28;43.50;100251.00;5074739;28;20479;-87
2022/01/24 12:08:33;;;;;;;6.30;2.03;;;;;;;2.32;43.08;100253.56;5076269;28;20482;-87
2022/01/24 12:11:19;;;;;;;13.93;2.37;;;;;;;2.47;44.22;100252.66;5074733;28;20401;-87
2022/01/24 12:13:54;;;;;;;2.77;1.73;;;;;;;2.13;43.71;100256.16;5075537;28;20422;-86
2022/01/24 12:16:32;;;;;;;4.80;1.33;;;;;;;2.17;44.26;100257.91;5075909;28;20505;-88
2022/01/24 12:18:59;;;;;;;2.23;1.60;;;;;;;2.21;44.51;100267.38;5076126;28;20434;-86
2022/01/24 12:21:27;;;;;;;2.40;0.90;;;;;;;2.19;43.94;100258.75;5074762;28;20772;-86
2022/01/24 12:23:58;;;;;;;3.83;1.57;;;;;;;2.03;43.53;100264.78;5074463;28;20985;-88
2022/01/24 12:26:27;;;;;;;4.53;2.93;;;;;;;2.20;43.51;100266.50;5075360;28;20524;-86
2022/01/24 12:28:59;;;;;;;4.87;3.17;;;;;;;1.95;44.14;100263.94;5075672;28;20422;-87
2022/01/24 12:31:44;;;;;;;2.07;0.97;;;;;;;2.15;43.30;100262.22;5075628;28;20395;-87
2022/01/24 12:34:37;;;;;;;4.40;2.07;;;;;;;2.07;43.34;100254.44;5075539;28;20398;-87
2022/01/24 12:37:10;;;;;;;3.80;1.83;;;;;;;1.63;44.31;100263.91;5075894;28;20759;-88
2022/01/24 12:39:40;;;;;;;4.17;1.67;;;;;;;1.80;45.18;100270.84;5075695;28;20403;-87
2022/01/24 12:42:12;;;;;;;4.63;2.10;;;;;;;1.67;46.41;100260.47;5075040;28;20441;-88
2022/01/24 12:47:11;;;;;;;4.47;2.33;;;;;;;2.06;45.80;100262.22;5074873;28;20481;-88
2022/01/24 12:49:38;;;;;;;6.77;1.97;;;;;;;2.19;44.94;100262.22;5074212;28;20444;-87
2022/01/24 12:52:09;;;;;;;3.73;2.17;;;;;;;2.41;45.67;100273.41;5074253;28;20267;-88
2022/01/24 12:54:38;;;;;;;7.17;2.70;;;;;;;2.46;44.80;100274.25;5073887;28;20413;-88
2022/01/24 12:57:09;;;;;;;3.93;2.27;;;;;;;2.39;44.75;100283.72;5074644;28;20422;-87
2022/01/24 12:59:37;;;;;;;4.07;2.07;;;;;;;2.40;45.50;100289.78;5073782;28;20415;-88
2022/01/24 13:02:05;;;;;;;2.17;1.10;;;;;;;2.08;45.62;100288.94;5073725;28;20176;-88
2022/01/24 13:04:35;;;;;;;2.63;1.43;;;;;;;1.77;46.25;100296.69;5073654;28;20834;-89
2022/01/24 13:07:00;;;;;;;2.13;1.17;;;;;;;1.50;45.40;100306.09;5074900;28;20708;-92
2022/01/24 13:09:26;;;;;;;4.67;2.43;;;;;;;1.69;45.21;100298.38;5073578;28;20521;-88
2022/01/24 13:11:53;;;;;;;2.93;1.43;;;;;;;2.12;45.57;100303.59;5073622;28;20183;-88
2022/01/24 13:22:47;;;;;;;4.03;1.83;;;;;;;2.25;44.66;100311.38;5074892;28;20586;-87
2022/01/24 13:25:28;;;;;;;3.50;1.60;;;;;;;2.28;45.64;100320.84;5074551;28;20156;-89
2022/01/24 13:28:03;;;;;;;4.73;1.53;;;;;;;1.70;45.93;100322.50;5074169;28;20852;-88
2022/01/24 13:30:45;;;;;;;4.27;1.77;;;;;;;1.71;45.71;100321.63;5074065;28;20428;-88
2022/01/24 13:33:13;;;;;;;2.93;1.30;;;;;;;1.92;45.10;100328.56;5074409;28;20402;-88
2022/01/24 13:35:46;;;;;;;3.73;2.03;;;;;;;2.10;45.09;100325.97;5073996;28;20638;-87
2022/01/24 13:38:15;;;;;;;4.50;2.27;;;;;;;1.98;44.89;100318.22;5074027;28;20705;-88
2022/01/24 13:41:10;;;;;;;7.50;1.80;;;;;;;1.92;44.29;100319.09;5073799;28;20435;-87
2022/01/24 13:43:58;;;;;;;1.93;1.03;;;;;;;2.18;44.96;100324.25;5073228;28;20174;-88
2022/01/24 13:46:31;;;;;;;0.83;0.60;;;;;;;1.97;44.84;100319.09;5073989;28;20539;-87